createdAt,value
2018-02-22T00:02:20.065Z,8.86
2018-02-22T00:04:47.571Z,8.89
2018-02-22T00:07:15.279Z,8.84
2018-02-22T00:09:42.795Z,8.79
2018-02-22T00:12:10.293Z,8.85
2018-02-22T00:14:37.863Z,8.84
2018-02-22T00:17:05.437Z,8.83
2018-02-22T00:19:32.994Z,8.84
2018-02-22T00:22:00.736Z,8.88
2018-02-22T00:24:28.251Z,8.87
2018-02-22T00:26:55.797Z,8.90
2018-02-22T00:29:23.350Z,8.85
2018-02-22T00:31:50.920Z,8.87
2018-02-22T00:34:18.500Z,8.87
2018-02-22T00:36:46.065Z,8.88
2018-02-22T00:39:13.631Z,8.80
2018-02-22T00:41:41.199Z,8.84
2018-02-22T00:44:08.765Z,8.87
2018-02-22T00:46:36.321Z,8.90
2018-02-22T00:49:03.900Z,8.89
2018-02-22T00:51:31.451Z,8.83
2018-02-22T00:53:59.010Z,8.88
2018-02-22T00:56:26.593Z,8.90
2018-02-22T00:58:54.139Z,8.87
2018-02-22T01:01:21.925Z,8.86
2018-02-22T01:03:49.563Z,8.85
2018-02-22T01:06:17.153Z,8.88
2018-02-22T01:08:44.687Z,8.85
2018-02-22T01:11:12.226Z,8.87
2018-02-22T01:13:39.777Z,8.86
2018-02-22T01:16:07.608Z,8.84
2018-02-22T01:18:35.155Z,8.85
2018-02-22T01:21:02.709Z,8.86
2018-02-22T01:23:30.221Z,8.85
2018-02-22T01:25:57.767Z,8.90
2018-02-22T01:28:25.297Z,8.88
2018-02-22T01:30:52.842Z,8.88
2018-02-22T01:33:20.449Z,8.89
2018-02-22T01:35:47.993Z,8.86
2018-02-22T01:38:15.581Z,8.89
2018-02-22T01:40:43.131Z,8.86
2018-02-22T01:43:10.792Z,8.87
2018-02-22T01:45:38.359Z,8.86
2018-02-22T01:48:05.896Z,8.87
2018-02-22T01:50:33.467Z,8.87
2018-02-22T01:53:01.022Z,8.84
2018-02-22T01:55:28.589Z,8.81
2018-02-22T01:57:56.146Z,8.82
2018-02-22T02:00:23.825Z,8.78
2018-02-22T02:02:51.401Z,8.77
2018-02-22T02:05:18.993Z,8.78
2018-02-22T02:07:46.556Z,8.78
2018-02-22T02:10:14.090Z,8.78
2018-02-22T02:12:41.653Z,8.76
2018-02-22T02:15:09.167Z,8.77
2018-02-22T02:17:36.692Z,8.76
2018-02-22T02:20:04.189Z,8.78
2018-02-22T02:22:31.847Z,8.75
2018-02-22T02:24:59.422Z,8.70
2018-02-22T02:27:26.947Z,8.74
2018-02-22T02:29:54.502Z,8.78
2018-02-22T02:32:22.079Z,8.71
2018-02-22T02:34:49.635Z,8.74
2018-02-22T02:37:17.170Z,8.75
2018-02-22T02:39:44.697Z,8.76
2018-02-22T02:42:12.206Z,8.73
2018-02-22T02:44:39.721Z,8.75
2018-02-22T02:47:07.278Z,8.68
2018-02-22T02:49:34.854Z,8.73
2018-02-22T02:52:02.385Z,8.73
2018-02-22T02:54:29.931Z,8.70
2018-02-22T02:56:57.617Z,8.74
2018-02-22T02:59:25.140Z,8.75
2018-02-22T03:01:52.763Z,8.71
2018-02-22T03:04:20.299Z,8.76
2018-02-22T03:06:47.812Z,8.75
2018-02-22T03:09:15.345Z,8.74
2018-02-22T03:11:42.872Z,8.76
2018-02-22T03:14:10.514Z,8.76
2018-02-22T03:16:38.035Z,8.78
2018-02-22T03:19:05.543Z,8.80
2018-02-22T03:21:33.066Z,8.82
2018-02-22T03:24:00.646Z,8.82
2018-02-22T03:26:28.192Z,8.74
2018-02-22T03:28:55.715Z,8.77
2018-02-22T03:31:23.242Z,8.80
2018-02-22T03:33:51.037Z,8.81
2018-02-22T03:36:18.555Z,8.80
2018-02-22T03:38:46.079Z,8.84
2018-02-22T03:41:13.681Z,8.82
2018-02-22T03:43:41.214Z,8.75
2018-02-22T03:46:08.778Z,8.82
2018-02-22T03:48:36.295Z,8.78
2018-02-22T03:51:03.827Z,8.78
2018-02-22T03:53:31.365Z,8.78
2018-02-22T03:55:58.913Z,8.80
2018-02-22T03:58:26.464Z,8.79
2018-02-22T04:00:54.014Z,8.82
2018-02-22T04:03:21.531Z,8.87
2018-02-22T04:05:49.053Z,8.79
2018-02-22T04:08:16.575Z,8.86
2018-02-22T04:10:44.160Z,8.92
2018-02-22T04:13:11.704Z,8.90
2018-02-22T04:15:39.211Z,8.90
2018-02-22T04:18:06.736Z,8.91
2018-02-22T04:20:34.862Z,8.83
2018-02-22T04:23:02.426Z,8.89
2018-02-22T04:25:30.213Z,8.88
2018-02-22T04:27:57.768Z,8.89
2018-02-22T04:30:25.314Z,8.87
2018-02-22T04:32:52.870Z,8.89
2018-02-22T04:35:20.460Z,8.88
2018-02-22T04:37:48.038Z,8.87
2018-02-22T04:40:15.525Z,8.90
2018-02-22T04:42:43.045Z,8.90
2018-02-22T04:45:10.550Z,8.91
2018-02-22T04:47:38.079Z,8.89
2018-02-22T04:50:05.641Z,8.91
2018-02-22T04:52:33.193Z,8.91
2018-02-22T04:55:00.721Z,8.92
2018-02-22T04:57:28.281Z,8.83
2018-02-22T04:59:55.818Z,8.89
2018-02-22T05:02:23.351Z,8.89
2018-02-22T05:04:50.904Z,8.89
2018-02-22T05:07:18.501Z,8.88
2018-02-22T05:09:46.050Z,8.90
2018-02-22T05:12:13.613Z,8.90
2018-02-22T05:14:41.176Z,8.84
2018-02-22T05:17:09.499Z,8.88
2018-02-22T05:19:37.051Z,8.89
2018-02-22T05:22:04.664Z,8.86
2018-02-22T05:24:32.187Z,8.92
2018-02-22T05:26:59.721Z,8.91
2018-02-22T05:29:27.270Z,8.91
2018-02-22T05:31:54.953Z,8.90
2018-02-22T05:34:22.482Z,8.94
2018-02-22T05:36:50.180Z,8.92
2018-02-22T05:39:17.720Z,8.95
2018-02-22T05:41:45.466Z,8.96
2018-02-22T05:44:13.188Z,8.99
2018-02-22T05:46:40.737Z,9.01
2018-02-22T05:49:08.265Z,9.03
2018-02-22T05:51:35.804Z,9.02
2018-02-22T05:54:03.327Z,9.04
2018-02-22T05:56:30.876Z,9.04
2018-02-22T05:58:58.394Z,9.04
2018-02-22T06:01:25.930Z,9.10
2018-02-22T06:03:53.434Z,9.11
2018-02-22T06:06:20.945Z,9.10
2018-02-22T06:08:48.450Z,9.14
2018-02-22T06:11:16.053Z,9.17
2018-02-22T06:13:43.595Z,9.14
2018-02-22T06:16:11.123Z,9.20
2018-02-22T06:18:38.637Z,9.22
2018-02-22T06:21:06.172Z,9.23
2018-02-22T06:23:33.942Z,9.31
2018-02-22T06:26:01.490Z,9.38
2018-02-22T06:28:29.041Z,9.40
2018-02-22T06:30:56.820Z,9.46
2018-02-22T06:33:24.348Z,9.44
2018-02-22T06:35:51.876Z,9.56
2018-02-22T06:38:19.417Z,9.65
2018-02-22T06:40:46.923Z,9.75
2018-02-22T06:43:14.454Z,9.77
2018-02-22T06:45:41.984Z,9.87
2018-02-22T06:48:09.508Z,9.93
2018-02-22T06:50:37.043Z,10.00
2018-02-22T06:53:04.538Z,9.94
2018-02-22T06:55:32.089Z,9.95
2018-02-22T06:57:59.676Z,10.00
2018-02-22T07:00:27.197Z,10.03
2018-02-22T07:02:54.977Z,10.05
2018-02-22T07:05:22.504Z,10.03
2018-02-22T07:07:50.013Z,10.05
2018-02-22T07:10:18.450Z,10.13
2018-02-22T07:12:45.995Z,10.11
2018-02-22T07:15:13.537Z,10.22
2018-02-22T07:17:41.059Z,10.25
2018-02-22T07:20:08.602Z,10.42
2018-02-22T07:22:36.135Z,11.94
2018-02-22T07:25:03.690Z,12.70
2018-02-22T07:27:31.211Z,12.91
2018-02-22T07:29:58.769Z,13.22
2018-02-22T07:32:26.318Z,13.15
2018-02-22T07:34:53.843Z,12.47
2018-02-22T07:37:21.482Z,12.06
2018-02-22T07:39:48.997Z,11.76
2018-02-22T07:42:16.519Z,11.49
2018-02-22T07:44:44.070Z,11.48
2018-02-22T07:47:11.591Z,11.81
2018-02-22T07:49:39.161Z,11.50
2018-02-22T07:52:06.696Z,11.58
2018-02-22T07:54:34.230Z,11.75
2018-02-22T07:57:01.747Z,11.64
2018-02-22T07:59:29.323Z,11.78
2018-02-22T08:01:56.881Z,11.82
2018-02-22T08:04:24.472Z,10.80
2018-02-22T08:06:52.001Z,10.87
2018-02-22T08:09:19.585Z,10.63
2018-02-22T08:11:47.099Z,9.74
2018-02-22T08:14:14.634Z,9.98
2018-02-22T08:16:42.171Z,9.50
2018-02-22T08:19:09.678Z,9.48
2018-02-22T08:21:37.213Z,9.66
2018-02-22T08:24:04.730Z,9.73
2018-02-22T08:26:32.274Z,9.54
2018-02-22T08:28:59.792Z,9.62
2018-02-22T08:31:27.321Z,9.98
2018-02-22T08:33:54.847Z,10.71
2018-02-22T08:36:22.549Z,11.60
2018-02-22T08:38:50.084Z,11.57
2018-02-22T08:41:17.616Z,11.98
2018-02-22T08:43:45.151Z,12.64
2018-02-22T08:46:12.672Z,13.38
2018-02-22T08:48:40.201Z,13.98
2018-02-22T08:51:07.710Z,14.42
2018-02-22T08:53:35.225Z,16.09
2018-02-22T08:56:02.764Z,17.45
2018-02-22T08:58:30.325Z,17.56
2018-02-22T09:00:57.895Z,17.90
2018-02-22T09:03:25.420Z,17.67
2018-02-22T09:05:52.964Z,17.84
2018-02-22T09:08:20.484Z,17.71
2018-02-22T09:10:48.013Z,17.41
2018-02-22T09:13:15.547Z,17.15
2018-02-22T09:15:43.151Z,16.47
2018-02-22T09:18:10.672Z,15.78
2018-02-22T09:20:38.702Z,15.18
2018-02-22T09:23:06.207Z,15.89
2018-02-22T09:25:33.742Z,16.83
2018-02-22T09:28:01.246Z,15.75
2018-02-22T09:30:28.773Z,15.31
2018-02-22T09:32:56.283Z,14.70
2018-02-22T09:35:23.804Z,14.84
2018-02-22T09:37:51.308Z,14.72
2018-02-22T09:40:18.806Z,14.20
2018-02-22T09:42:46.349Z,13.37
2018-02-22T09:45:14.047Z,12.74
2018-02-22T09:47:41.578Z,13.03
2018-02-22T09:50:09.111Z,13.01
2018-02-22T09:52:36.630Z,13.54
2018-02-22T09:55:04.162Z,13.70
2018-02-22T09:57:31.680Z,14.07
2018-02-22T09:59:59.203Z,14.25
2018-02-22T10:02:26.747Z,13.42
2018-02-22T10:04:54.269Z,13.69
2018-02-22T10:07:21.787Z,14.06
2018-02-22T10:09:49.290Z,13.85
2018-02-22T10:12:16.812Z,14.03
2018-02-22T10:14:44.360Z,13.83
2018-02-22T10:17:12.095Z,12.87
2018-02-22T10:19:40.165Z,12.88
2018-02-22T10:22:07.677Z,12.53
2018-02-22T10:24:35.204Z,12.50
2018-02-22T10:27:02.761Z,12.93
2018-02-22T10:29:30.278Z,13.01
2018-02-22T10:31:57.858Z,12.78
2018-02-22T10:34:25.377Z,12.41
2018-02-22T10:36:52.886Z,12.77
2018-02-22T10:39:20.425Z,12.82
2018-02-22T10:41:47.949Z,12.86
2018-02-22T10:44:15.493Z,12.77
2018-02-22T10:46:43.016Z,12.20
2018-02-22T10:49:10.528Z,13.11
2018-02-22T10:51:38.046Z,13.04
2018-02-22T10:54:05.571Z,12.48
2018-02-22T10:56:33.176Z,13.10
2018-02-22T10:59:00.699Z,13.22
2018-02-22T11:01:33.663Z,12.27
2018-02-22T11:04:01.179Z,13.24
2018-02-22T11:06:28.690Z,13.18
2018-02-22T11:08:56.194Z,14.66
2018-02-22T11:11:23.708Z,16.31
2018-02-22T11:13:51.285Z,15.89
2018-02-22T11:16:18.797Z,15.91
2018-02-22T11:18:46.334Z,15.80
2018-02-22T11:21:13.855Z,15.55
2018-02-22T11:23:41.398Z,15.12
2018-02-22T11:26:08.965Z,14.34
2018-02-22T11:28:36.493Z,14.47
2018-02-22T11:31:04.092Z,14.82
2018-02-22T11:33:31.626Z,13.95
2018-02-22T11:35:59.160Z,14.00
2018-02-22T11:38:26.686Z,14.42
2018-02-22T11:40:54.202Z,14.21
2018-02-22T11:43:21.747Z,13.73
2018-02-22T11:45:50.023Z,13.87
2018-02-22T11:48:17.557Z,14.49
2018-02-22T11:50:45.092Z,14.76
2018-02-22T11:53:12.640Z,15.28
2018-02-22T11:55:40.153Z,15.19
2018-02-22T11:58:07.730Z,15.45
2018-02-22T12:00:35.266Z,16.10
2018-02-22T12:03:02.791Z,15.60
2018-02-22T12:05:30.318Z,15.27
2018-02-22T12:07:57.864Z,16.00
2018-02-22T12:10:25.382Z,16.36
2018-02-22T12:12:54.940Z,15.98
2018-02-22T12:15:22.491Z,16.35
2018-02-22T12:17:50.027Z,15.97
2018-02-22T12:20:17.572Z,15.99
2018-02-22T12:22:46.524Z,15.65
2018-02-22T12:25:14.030Z,15.26
2018-02-22T12:27:41.551Z,14.90
2018-02-22T12:30:09.227Z,14.41
2018-02-22T12:32:36.759Z,13.84
2018-02-22T12:35:04.300Z,13.55
2018-02-22T12:37:31.810Z,13.62
2018-02-22T12:39:59.394Z,13.78
2018-02-22T12:42:26.967Z,13.17
2018-02-22T12:44:54.630Z,12.73
2018-02-22T12:47:22.165Z,13.03
2018-02-22T12:49:49.683Z,12.85
2018-02-22T12:52:17.333Z,11.68
2018-02-22T12:54:44.884Z,12.08
2018-02-22T12:57:12.550Z,11.97
2018-02-22T12:59:40.094Z,11.72
2018-02-22T13:02:07.652Z,11.68
2018-02-22T13:04:35.164Z,11.43
2018-02-22T13:07:02.706Z,11.40
2018-02-22T13:09:30.273Z,11.05
2018-02-22T13:11:57.796Z,10.91
2018-02-22T13:14:25.374Z,11.52
2018-02-22T13:16:52.916Z,11.62
2018-02-22T13:19:20.441Z,11.91
2018-02-22T13:21:47.959Z,12.13
2018-02-22T13:24:15.492Z,11.38
2018-02-22T13:26:43.054Z,11.18
2018-02-22T13:29:10.605Z,11.44
2018-02-22T13:31:38.170Z,11.76
2018-02-22T13:37:25.423Z,12.02
2018-02-22T13:39:52.939Z,12.04
2018-02-22T13:42:20.489Z,11.22
2018-02-22T13:44:59.755Z,11.08
2018-02-22T13:47:27.313Z,11.31
2018-02-22T13:50:06.654Z,11.02
2018-02-22T13:52:34.182Z,10.94
2018-02-22T13:55:01.976Z,10.92
2018-02-22T13:57:29.523Z,10.65
2018-02-22T13:59:57.044Z,10.60
2018-02-22T14:02:25.050Z,10.39
2018-02-22T14:04:52.739Z,10.71
2018-02-22T14:07:20.248Z,10.68
2018-02-22T14:09:47.849Z,10.68
2018-02-22T14:12:15.362Z,10.66
2018-02-22T14:14:42.870Z,10.27
2018-02-22T14:17:10.551Z,9.68
2018-02-22T14:19:38.431Z,9.79
2018-02-22T14:22:05.962Z,9.94
2018-02-22T14:24:33.541Z,9.96
2018-02-22T14:27:01.064Z,9.85
2018-02-22T14:29:28.583Z,9.84
2018-02-22T14:31:56.108Z,9.96
2018-02-22T14:34:23.617Z,10.49
2018-02-22T14:36:51.257Z,10.67
2018-02-22T14:39:18.808Z,10.03
2018-02-22T14:41:46.531Z,10.37
2018-02-22T14:44:14.071Z,10.46
2018-02-22T14:46:41.612Z,10.21
2018-02-22T14:49:09.144Z,10.45
2018-02-22T14:51:36.747Z,10.64
2018-02-22T14:54:04.293Z,10.61
2018-02-22T14:56:31.830Z,10.58
2018-02-22T14:59:00.337Z,10.73
2018-02-22T15:01:28.170Z,10.64
2018-02-22T15:03:55.693Z,10.72
2018-02-22T15:06:23.202Z,10.57
2018-02-22T15:08:50.751Z,10.76
2018-02-22T15:11:18.355Z,10.08
2018-02-22T15:13:46.022Z,9.91
2018-02-22T15:16:13.564Z,10.33
2018-02-22T15:18:41.087Z,10.15
2018-02-22T15:21:08.638Z,10.39
2018-02-22T15:23:36.180Z,10.50
2018-02-22T15:26:03.734Z,10.43
2018-02-22T15:28:31.277Z,10.41
2018-02-22T15:30:58.824Z,10.09
2018-02-22T15:33:26.406Z,10.24
2018-02-22T15:35:53.926Z,10.00
2018-02-22T15:38:21.449Z,9.69
2018-02-22T15:40:49.061Z,9.59
2018-02-22T15:43:16.616Z,9.72
2018-02-22T15:45:44.125Z,9.66
2018-02-22T15:48:11.656Z,9.39
2018-02-22T15:50:39.245Z,9.70
2018-02-22T15:53:06.769Z,9.69
2018-02-22T15:55:34.306Z,9.79
2018-02-22T15:58:01.821Z,9.80
2018-02-22T16:00:29.388Z,9.83
2018-02-22T16:02:56.991Z,9.70
2018-02-22T16:05:24.527Z,9.71
2018-02-22T16:07:52.039Z,9.57
2018-02-22T16:10:19.590Z,9.58
2018-02-22T16:12:47.198Z,9.55
2018-02-22T16:15:14.711Z,9.62
2018-02-22T16:17:42.463Z,9.58
2018-02-22T16:20:10.063Z,9.64
2018-02-22T16:22:37.658Z,9.47
2018-02-22T16:25:05.254Z,9.39
2018-02-22T16:27:32.811Z,9.44
2018-02-22T16:30:00.390Z,9.06
2018-02-22T16:32:27.968Z,9.11
2018-02-22T16:34:55.839Z,9.19
2018-02-22T16:37:23.373Z,9.22
2018-02-22T16:39:50.923Z,9.41
2018-02-22T16:42:18.531Z,9.24
2018-02-22T16:44:46.056Z,9.40
2018-02-22T16:47:13.641Z,9.31
2018-02-22T16:49:41.349Z,8.91
2018-02-22T16:52:08.901Z,9.00
2018-02-22T16:54:36.660Z,9.05
2018-02-22T16:57:04.265Z,9.07
2018-02-22T16:59:31.852Z,9.23
2018-02-22T17:01:59.701Z,9.08
2018-02-22T17:04:27.250Z,9.19
2018-02-22T17:06:54.877Z,9.23
2018-02-22T17:09:22.438Z,8.55
2018-02-22T17:11:49.989Z,8.84
2018-02-22T17:14:17.676Z,8.83
2018-02-22T17:16:45.188Z,8.80
2018-02-22T17:19:12.723Z,8.79
2018-02-22T17:21:40.247Z,8.71
2018-02-22T17:24:07.752Z,8.79
2018-02-22T17:26:40.830Z,8.91
2018-02-22T17:29:13.996Z,8.88
2018-02-22T17:31:46.954Z,8.68
2018-02-22T17:34:14.539Z,8.71
2018-02-22T17:36:54.901Z,8.67
2018-02-22T17:39:24.260Z,8.74
2018-02-22T17:41:51.866Z,8.82
2018-02-22T17:44:19.421Z,8.78
2018-02-22T17:46:47.280Z,8.64
2018-02-22T17:49:14.887Z,8.67
2018-02-22T17:51:42.660Z,8.48
2018-02-22T17:54:10.274Z,8.22
2018-02-22T17:56:37.944Z,8.41
2018-02-22T17:59:05.491Z,8.40
2018-02-22T18:01:33.004Z,8.44
2018-02-22T18:04:00.877Z,8.48
2018-02-22T18:06:28.453Z,8.69
2018-02-22T18:08:56.677Z,8.77
2018-02-22T18:11:24.254Z,8.76
2018-02-22T18:13:51.772Z,8.64
2018-02-22T18:16:19.290Z,8.71
2018-02-22T18:18:46.812Z,8.78
2018-02-22T18:21:14.398Z,8.70
2018-02-22T18:23:42.585Z,8.51
2018-02-22T18:26:10.589Z,8.59
2018-02-22T18:28:38.114Z,8.72
2018-02-22T18:31:05.636Z,8.71
2018-02-22T18:33:33.185Z,8.67
2018-02-22T18:36:00.864Z,8.86
2018-02-22T18:38:28.492Z,9.33
2018-02-22T18:41:00.094Z,9.21
2018-02-22T18:43:33.211Z,9.03
2018-02-22T18:46:00.807Z,9.03
2018-02-22T18:48:28.346Z,9.01
2018-02-22T18:50:55.893Z,8.97
2018-02-22T18:53:23.467Z,8.93
2018-02-22T18:55:51.059Z,8.94
2018-02-22T18:58:18.697Z,8.88
2018-02-22T19:00:46.319Z,8.91
2018-02-22T19:03:14.064Z,8.88
2018-02-22T19:05:41.599Z,8.88
2018-02-22T19:08:09.428Z,8.82
2018-02-22T19:10:37.022Z,8.83
2018-02-22T19:13:04.856Z,8.79
2018-02-22T19:15:32.435Z,8.83
2018-02-22T19:18:00.066Z,8.86
2018-02-22T19:20:27.715Z,8.89
2018-02-22T19:22:55.315Z,8.86
2018-02-22T19:27:58.941Z,8.81
2018-02-22T19:30:26.532Z,9.00
2018-02-22T19:32:54.150Z,8.97
2018-02-22T19:35:21.713Z,8.94
2018-02-22T19:37:49.274Z,8.93
2018-02-22T19:40:16.859Z,8.92
2018-02-22T19:42:44.482Z,8.89
2018-02-22T19:45:12.051Z,8.97
2018-02-22T19:47:39.656Z,8.92
2018-02-22T19:50:07.297Z,8.94
2018-02-22T19:52:34.848Z,8.91
2018-02-22T19:55:02.444Z,8.91
2018-02-22T19:57:30.045Z,8.94
2018-02-22T19:59:57.636Z,8.95
2018-02-22T20:02:25.142Z,8.94
2018-02-22T20:04:52.677Z,8.92
2018-02-22T20:07:20.308Z,8.93
2018-02-22T20:09:47.876Z,8.95
2018-02-22T20:12:15.426Z,8.92
2018-02-22T20:14:42.982Z,8.91
2018-02-22T20:17:10.577Z,8.92
2018-02-22T20:19:38.122Z,8.89
2018-02-22T20:22:05.633Z,8.91
2018-02-22T20:24:37.325Z,8.92
2018-02-22T20:27:04.931Z,8.87
2018-02-22T20:29:33.408Z,8.88
2018-02-22T20:32:00.992Z,8.81
2018-02-22T20:34:28.524Z,8.80
2018-02-22T20:36:56.179Z,8.79
2018-02-22T20:39:23.783Z,8.84
2018-02-22T20:41:51.314Z,8.83
2018-02-22T20:44:18.870Z,8.78
2018-02-22T20:46:46.401Z,8.79
2018-02-22T20:49:14.287Z,8.79
2018-02-22T20:51:47.386Z,8.81
2018-02-22T20:54:14.931Z,8.79
2018-02-22T20:56:43.189Z,8.81
2018-02-22T20:59:10.773Z,8.79
2018-02-22T21:01:38.363Z,8.76
2018-02-22T21:04:21.433Z,8.71
2018-02-22T21:06:49.026Z,8.76
2018-02-22T21:09:16.626Z,8.75
2018-02-22T21:11:44.232Z,8.77
2018-02-22T21:14:11.773Z,8.73
2018-02-22T21:16:39.329Z,8.77
2018-02-22T21:19:06.930Z,8.73
2018-02-22T21:21:34.497Z,8.74
2018-02-22T21:24:02.132Z,8.75
2018-02-22T21:26:29.682Z,8.72
2018-02-22T21:28:57.270Z,8.72
2018-02-22T21:31:24.907Z,8.69
2018-02-22T21:33:52.505Z,8.64
2018-02-22T21:36:20.045Z,8.62
2018-02-22T21:38:47.613Z,8.62
2018-02-22T21:41:15.234Z,8.59
2018-02-22T21:43:42.827Z,8.58
2018-02-22T21:46:10.438Z,8.59
2018-02-22T21:48:38.010Z,8.57
2018-02-22T21:51:05.611Z,8.55
2018-02-22T21:53:33.211Z,8.54
2018-02-22T21:56:00.782Z,8.50
2018-02-22T21:58:28.327Z,8.58
2018-02-22T22:00:55.896Z,8.57
2018-02-22T22:03:23.478Z,8.36
2018-02-22T22:05:51.016Z,8.53
2018-02-22T22:08:18.785Z,8.51
2018-02-22T22:10:46.930Z,8.51
2018-02-22T22:13:14.485Z,8.47
2018-02-22T22:15:42.101Z,8.45
2018-02-22T22:18:09.680Z,8.47
2018-02-22T22:20:37.242Z,8.41
2018-02-22T22:23:04.880Z,8.48
2018-02-22T22:25:32.469Z,8.49
2018-02-22T22:28:00.058Z,8.52
2018-02-22T22:30:27.716Z,8.50
2018-02-22T22:32:55.308Z,8.48
2018-02-22T22:35:22.854Z,8.50
2018-02-22T22:37:50.469Z,8.49
2018-02-22T22:40:18.052Z,8.49
2018-02-22T22:42:45.679Z,8.46
2018-02-22T22:45:13.297Z,8.48
2018-02-22T22:47:40.806Z,8.50
2018-02-22T22:50:08.381Z,8.48
2018-02-22T22:52:35.919Z,8.47
2018-02-22T22:55:03.512Z,8.47
2018-02-22T22:57:31.047Z,8.50
2018-02-22T22:59:58.631Z,8.49
2018-02-22T23:02:27.313Z,8.45
2018-02-22T23:04:55.132Z,8.44
2018-02-22T23:07:22.687Z,8.46
2018-02-22T23:09:51.512Z,8.46
2018-02-22T23:12:19.117Z,8.46
2018-02-22T23:14:46.697Z,8.48
2018-02-22T23:17:14.273Z,8.48
2018-02-22T23:19:41.789Z,8.43
2018-02-22T23:22:09.401Z,8.43
2018-02-22T23:24:37.007Z,8.47
2018-02-22T23:27:04.564Z,8.48
2018-02-22T23:29:32.073Z,8.50
2018-02-22T23:31:59.633Z,8.49
2018-02-22T23:34:27.178Z,8.48
2018-02-22T23:36:54.713Z,8.50
2018-02-22T23:39:22.309Z,8.47
2018-02-22T23:42:07.621Z,8.50
2018-02-22T23:44:35.149Z,8.51
2018-02-22T23:47:02.657Z,8.48
2018-02-22T23:49:30.236Z,8.50
2018-02-22T23:51:57.800Z,8.51
2018-02-22T23:54:25.567Z,8.44
2018-02-22T23:56:53.289Z,8.49
2018-02-22T23:59:20.855Z,8.49
